Time;durP1;ratioP1;P1;durP2;ratioP2;P2;SDS_P1;SDS_P2;PMS_P1;PMS_P2;Temp;Humidity;BMP_temperature;BMP_pressure;BME280_temperature;BME280_humidity;BME280_pressure;Samples;Min_cycle;Max_cycle;Signal;HPM_P1;HPM_P2
2022/10/16 00:01:21;;;;;;;;;;;17.70;65.00;;;;;;5129749;28;19926;-73
2022/10/16 00:03:47;;;;;;;;;;;17.70;65.00;;;;;;5129625;28;19924;-74
2022/10/16 00:06:13;;;;;;;;;;;17.70;65.00;;;;;;5128840;28;19924;-73
2022/10/16 00:08:39;;;;;;;;;;;17.70;64.90;;;;;;5129130;28;19927;-73
2022/10/16 00:11:06;;;;;;;;;;;17.80;65.00;;;;;;5129118;28;19920;-74
2022/10/16 00:13:32;;;;;;;;;;;17.70;64.90;;;;;;5129129;28;19930;-74
2022/10/16 00:15:58;;;;;;;;;;;17.70;64.90;;;;;;5129385;28;20002;-72
2022/10/16 00:18:24;;;;;;;;;;;17.70;64.90;;;;;;5130381;27;19919;-73
2022/10/16 00:20:50;;;;;;;;;;;17.70;64.90;;;;;;5128323;28;19943;-73
2022/10/16 00:23:15;;;;;;;;;;;17.70;64.90;;;;;;5128731;28;19920;-71
2022/10/16 00:25:41;;;;;;;;;;;17.70;64.90;;;;;;5128903;28;19977;-74
2022/10/16 00:28:06;;;;;;;;;;;17.70;64.80;;;;;;5128921;28;19920;-73
2022/10/16 00:30:32;;;;;;;;;;;17.70;64.80;;;;;;5130086;27;19976;-72
2022/10/16 00:32:57;;;;;;;;;;;17.70;64.80;;;;;;5128045;28;19930;-74
2022/10/16 00:35:23;;;;;;;;;;;17.70;64.80;;;;;;5128401;28;19920;-72
2022/10/16 00:37:48;;;;;;;;;;;17.70;64.80;;;;;;5130228;27;19927;-72
2022/10/16 00:40:14;;;;;;;;;;;17.70;64.80;;;;;;5128604;28;19966;-74
2022/10/16 00:42:40;;;;;;;;;;;17.70;64.80;;;;;;5129876;27;19966;-74
2022/10/16 00:45:05;;;;;;;;;;;17.70;64.80;;;;;;5128562;28;19970;-74
2022/10/16 00:47:34;;;;;;;;;;;17.70;64.80;;;;;;5128579;28;19984;-73
2022/10/16 00:50:02;;;;;;;;;;;17.70;64.80;;;;;;5129804;27;19920;-72
2022/10/16 00:52:27;;;;;;;;;;;17.70;64.80;;;;;;5129234;27;20371;-73
2022/10/16 00:54:53;;;;;;;;;;;17.60;64.70;;;;;;5128639;28;19926;-74
2022/10/16 00:57:19;;;;;;;;;;;17.10;64.50;;;;;;5128659;28;20161;-74
2022/10/16 00:59:45;;;;;;;;;;;17.70;64.80;;;;;;5128331;28;20526;-73
2022/10/16 01:02:13;;;;;;;;;;;17.70;64.70;;;;;;5128200;28;19924;-74
2022/10/16 01:04:41;;;;;;;;;;;17.70;64.70;;;;;;5118374;28;19924;-74
2022/10/16 01:07:27;;;;;;;;;;;17.70;64.70;;;;;;5114671;28;20176;-74
2022/10/16 01:12:50;;;;;;;;;;;17.70;64.60;;;;;;5164413;27;795828;-74
2022/10/16 01:18:00;;;;;;;;;;;17.70;64.60;;;;;;5122845;27;19935;-72
2022/10/16 01:28:37;;;;;;;;;;;17.70;64.60;;;;;;5125953;27;19913;-72
2022/10/16 01:31:02;;;;;;;;;;;17.60;64.50;;;;;;5108905;28;19927;-74
2022/10/16 01:33:33;;;;;;;;;;;17.70;64.60;;;;;;5108992;28;19920;-74
2022/10/16 01:36:01;;;;;;;;;;;17.60;64.50;;;;;;5126130;28;19981;-74
2022/10/16 01:38:32;;;;;;;;;;;17.70;64.60;;;;;;5108748;28;19971;-74
2022/10/16 01:40:59;;;;;;;;;;;17.70;64.60;;;;;;5109173;28;20272;-75
2022/10/16 01:43:27;;;;;;;;;;;17.70;64.60;;;;;;5108368;28;20256;-74
2022/10/16 01:45:53;;;;;;;;;;;17.70;64.50;;;;;;5109086;28;19969;-74
2022/10/16 01:48:20;;;;;;;;;;;17.70;64.60;;;;;;5109872;28;20363;-73
2022/10/16 01:50:51;;;;;;;;;;;17.60;64.50;;;;;;5108929;28;19990;-73
2022/10/16 01:53:17;;;;;;;;;;;17.60;64.50;;;;;;5108441;28;19920;-74
2022/10/16 01:55:44;;;;;;;;;;;17.60;64.50;;;;;;5109886;28;19920;-73
2022/10/16 01:58:11;;;;;;;;;;;17.60;64.50;;;;;;5108323;28;19920;-74
2022/10/16 02:00:37;;;;;;;;;;;17.60;64.50;;;;;;5108433;28;19920;-73
2022/10/16 02:03:04;;;;;;;;;;;17.60;64.50;;;;;;5109652;28;19920;-74
2022/10/16 02:05:34;;;;;;;;;;;17.70;64.50;;;;;;5108302;28;19967;-74
2022/10/16 02:07:59;;;;;;;;;;;17.60;64.50;;;;;;5109433;28;20108;-74
2022/10/16 02:10:25;;;;;;;;;;;17.60;64.40;;;;;;5108404;28;20446;-74
2022/10/16 02:12:56;;;;;;;;;;;17.60;64.50;;;;;;5108584;28;19920;-74
2022/10/16 02:15:21;;;;;;;;;;;17.60;64.50;;;;;;5109392;28;19927;-73
2022/10/16 02:17:47;;;;;;;;;;;17.60;64.50;;;;;;5109448;28;20466;-74
2022/10/16 02:20:12;;;;;;;;;;;17.60;64.50;;;;;;5108337;28;20340;-72
2022/10/16 02:22:40;;;;;;;;;;;17.60;64.40;;;;;;5107953;28;19955;-72
2022/10/16 02:25:09;;;;;;;;;;;17.60;64.40;;;;;;5107918;28;20045;-74
2022/10/16 02:33:03;;;;;;;;;;;17.60;64.40;;;;;;5122523;27;20348;-74
2022/10/16 02:35:30;;;;;;;;;;;17.60;64.40;;;;;;5088827;28;19927;-74
2022/10/16 02:37:57;;;;;;;;;;;17.60;64.50;;;;;;5088574;28;19920;-74
2022/10/16 02:40:23;;;;;;;;;;;17.60;64.40;;;;;;5088491;28;19999;-74
2022/10/16 02:42:50;;;;;;;;;;;17.60;64.40;;;;;;5088123;28;20419;-75
2022/10/16 02:45:16;;;;;;;;;;;17.60;64.40;;;;;;5088460;28;19997;-74
2022/10/16 02:47:41;;;;;;;;;;;17.60;64.40;;;;;;5088705;28;20003;-74
2022/10/16 02:50:07;;;;;;;;;;;17.60;64.40;;;;;;5089528;28;20012;-74
2022/10/16 02:52:33;;;;;;;;;;;17.60;64.40;;;;;;5088331;28;19925;-73
2022/10/16 02:54:58;;;;;;;;;;;17.60;64.40;;;;;;5088169;28;20395;-74
2022/10/16 02:57:24;;;;;;;;;;;17.60;64.30;;;;;;5088266;28;19927;-74
2022/10/16 02:59:49;;;;;;;;;;;17.50;64.30;;;;;;5088111;28;19920;-74
2022/10/16 03:02:15;;;;;;;;;;;17.60;64.40;;;;;;5089398;28;19924;-73
2022/10/16 03:04:40;;;;;;;;;;;17.50;64.30;;;;;;5087960;28;19978;-74
2022/10/16 03:07:06;;;;;;;;;;;17.60;64.30;;;;;;5089326;28;19920;-72
2022/10/16 03:09:31;;;;;;;;;;;17.60;65.10;;;;;;5088291;28;19920;-74
2022/10/16 03:11:57;;;;;;;;;;;17.60;64.40;;;;;;5089187;28;20255;-71
2022/10/16 03:14:22;;;;;;;;;;;17.50;64.30;;;;;;5089234;28;20330;-74
2022/10/16 03:16:48;;;;;;;;;;;17.60;64.30;;;;;;5087710;28;19998;-74
2022/10/16 03:19:13;;;;;;;;;;;17.60;64.40;;;;;;5089060;28;19971;-73
2022/10/16 03:21:39;;;;;;;;;;;17.60;64.40;;;;;;5087703;28;19960;-73
2022/10/16 03:24:04;;;;;;;;;;;17.50;64.30;;;;;;5087722;28;19924;-75
2022/10/16 03:26:30;;;;;;;;;;;17.60;64.40;;;;;;5088904;28;19930;-74
2022/10/16 03:28:55;;;;;;;;;;;17.50;64.30;;;;;;5087605;28;19926;-72
2022/10/16 03:31:21;;;;;;;;;;;17.50;64.30;;;;;;5088483;28;19931;-74
2022/10/16 03:33:47;;;;;;;;;;;17.50;64.30;;;;;;5087528;28;19927;-74
2022/10/16 03:36:12;;;;;;;;;;;17.50;64.30;;;;;;5086669;28;19948;-74
2022/10/16 03:38:38;;;;;;;;;;;17.50;64.30;;;;;;5087407;28;19920;-74
2022/10/16 03:41:04;;;;;;;;;;;17.50;64.30;;;;;;5088481;28;19924;-74
2022/10/16 03:43:29;;;;;;;;;;;17.50;64.30;;;;;;5079000;28;19928;-74
2022/10/16 03:45:55;;;;;;;;;;;17.50;64.30;;;;;;5074124;28;20260;-74
2022/10/16 03:48:20;;;;;;;;;;;17.50;64.30;;;;;;5075010;28;19920;-73
2022/10/16 03:50:48;;;;;;;;;;;17.50;64.30;;;;;;5074838;28;19920;-74
2022/10/16 03:53:14;;;;;;;;;;;17.50;64.30;;;;;;5057229;28;19921;-74
2022/10/16 03:55:41;;;;;;;;;;;17.50;64.30;;;;;;5073992;28;19927;-74
2022/10/16 03:58:06;;;;;;;;;;;17.50;64.30;;;;;;5073510;28;20058;-74
2022/10/16 04:00:32;;;;;;;;;;;17.50;64.30;;;;;;5073564;28;20003;-72
2022/10/16 04:02:57;;;;;;;;;;;17.50;64.30;;;;;;5073718;28;20014;-71
2022/10/16 04:05:23;;;;;;;;;;;17.50;64.30;;;;;;5073429;28;20303;-73
2022/10/16 04:07:48;;;;;;;;;;;17.50;64.30;;;;;;5073356;28;19924;-74
2022/10/16 04:10:14;;;;;;;;;;;17.50;64.30;;;;;;5073340;28;19921;-74
2022/10/16 04:12:39;;;;;;;;;;;17.50;64.30;;;;;;5074583;28;19932;-74
2022/10/16 04:15:05;;;;;;;;;;;17.50;64.30;;;;;;5073597;28;19963;-74
2022/10/16 04:17:30;;;;;;;;;;;17.50;64.40;;;;;;5073186;28;20295;-74
2022/10/16 04:19:56;;;;;;;;;;;17.50;64.30;;;;;;5074486;28;19926;-73
2022/10/16 04:22:21;;;;;;;;;;;17.50;64.30;;;;;;5073003;28;19926;-74
2022/10/16 04:24:47;;;;;;;;;;;17.50;64.30;;;;;;5073429;28;20014;-74
2022/10/16 04:27:12;;;;;;;;;;;17.50;64.40;;;;;;5073362;28;19955;-74
2022/10/16 04:29:38;;;;;;;;;;;17.50;64.30;;;;;;5072925;28;19978;-74
2022/10/16 04:32:03;;;;;;;;;;;17.60;64.40;;;;;;5072661;28;19985;-74
2022/10/16 04:34:29;;;;;;;;;;;17.50;64.30;;;;;;5073109;28;19981;-75
2022/10/16 04:36:54;;;;;;;;;;;17.50;64.30;;;;;;5074091;28;19932;-74
2022/10/16 04:39:20;;;;;;;;;;;17.40;64.30;;;;;;5072891;28;19931;-74
2022/10/16 04:41:45;;;;;;;;;;;17.50;64.40;;;;;;5073022;28;19920;-74
2022/10/16 04:44:11;;;;;;;;;;;17.50;64.30;;;;;;5073975;28;19920;-74
2022/10/16 04:46:36;;;;;;;;;;;17.40;64.30;;;;;;5072914;28;19964;-74
2022/10/16 04:49:02;;;;;;;;;;;17.40;64.30;;;;;;5073838;28;19920;-75
2022/10/16 04:51:27;;;;;;;;;;;17.50;64.30;;;;;;5073835;28;19924;-73
2022/10/16 04:53:54;;;;;;;;;;;17.50;64.40;;;;;;5071383;28;19927;-74
2022/10/16 04:56:20;;;;;;;;;;;17.40;64.30;;;;;;5072011;28;20003;-73
2022/10/16 04:58:46;;;;;;;;;;;17.50;64.40;;;;;;5072318;28;19921;-74
2022/10/16 05:01:12;;;;;;;;;;;17.40;64.30;;;;;;5072353;28;19974;-74
2022/10/16 05:03:37;;;;;;;;;;;17.40;64.40;;;;;;5072539;28;19924;-71
2022/10/16 05:06:05;;;;;;;;;;;17.40;64.40;;;;;;5072257;28;20377;-72
2022/10/16 05:08:30;;;;;;;;;;;17.40;64.40;;;;;;5072448;28;19921;-74
2022/10/16 05:10:56;;;;;;;;;;;17.40;64.40;;;;;;5071928;28;20494;-74
2022/10/16 05:13:23;;;;;;;;;;;17.50;64.40;;;;;;5072094;28;19927;-73
2022/10/16 05:15:48;;;;;;;;;;;17.50;64.40;;;;;;5071991;28;19920;-74
2022/10/16 05:18:14;;;;;;;;;;;17.40;64.30;;;;;;5072369;28;19932;-74
2022/10/16 05:20:40;;;;;;;;;;;17.40;64.40;;;;;;5072254;28;20287;-73
2022/10/16 05:23:06;;;;;;;;;;;17.50;64.50;;;;;;5071879;28;19967;-74
2022/10/16 05:25:31;;;;;;;;;;;17.40;64.40;;;;;;5071859;28;19963;-74
2022/10/16 05:27:57;;;;;;;;;;;17.40;64.30;;;;;;5071849;28;19921;-74
2022/10/16 05:30:22;;;;;;;;;;;17.40;64.40;;;;;;5073026;28;19946;-74
2022/10/16 05:32:48;;;;;;;;;;;17.40;64.40;;;;;;5071476;28;19928;-74
2022/10/16 05:35:14;;;;;;;;;;;17.40;64.40;;;;;;5071910;28;20015;-74
2022/10/16 05:37:40;;;;;;;;;;;17.40;64.40;;;;;;5071712;28;19952;-74
2022/10/16 05:40:05;;;;;;;;;;;17.40;64.40;;;;;;5072800;28;19928;-74
2022/10/16 05:42:31;;;;;;;;;;;17.40;64.40;;;;;;5073057;28;19920;-74
2022/10/16 05:44:56;;;;;;;;;;;17.40;64.40;;;;;;5071505;28;19920;-71
2022/10/16 05:47:22;;;;;;;;;;;17.40;64.40;;;;;;5072995;28;19943;-74
2022/10/16 05:49:47;;;;;;;;;;;17.40;64.40;;;;;;5071958;28;20352;-72
2022/10/16 05:52:13;;;;;;;;;;;17.40;64.40;;;;;;5072614;28;19924;-73
2022/10/16 05:54:38;;;;;;;;;;;17.40;64.40;;;;;;5072650;28;19928;-74
2022/10/16 05:57:05;;;;;;;;;;;17.40;64.50;;;;;;5071355;28;20441;-74
2022/10/16 05:59:31;;;;;;;;;;;17.40;64.40;;;;;;5071632;28;20283;-74
2022/10/16 06:01:57;;;;;;;;;;;17.40;64.40;;;;;;5071418;28;19920;-74
2022/10/16 06:04:22;;;;;;;;;;;17.40;64.40;;;;;;5071297;28;19926;-74
2022/10/16 06:06:48;;;;;;;;;;;17.40;64.40;;;;;;5071263;28;19924;-74
2022/10/16 06:09:13;;;;;;;;;;;17.40;64.50;;;;;;5071852;28;20412;-71
2022/10/16 06:11:39;;;;;;;;;;;17.40;64.40;;;;;;5072343;28;19925;-73
2022/10/16 06:14:06;;;;;;;;;;;17.40;64.40;;;;;;5071153;28;19924;-74
2022/10/16 06:16:33;;;;;;;;;;;17.40;64.50;;;;;;5072496;28;19928;-74
2022/10/16 06:18:59;;;;;;;;;;;17.40;64.40;;;;;;5072391;28;19920;-74
2022/10/16 06:21:26;;;;;;;;;;;17.40;64.50;;;;;;5071038;28;20308;-74
2022/10/16 06:23:52;;;;;;;;;;;17.40;64.50;;;;;;5071126;28;20090;-74
2022/10/16 06:26:19;;;;;;;;;;;17.40;64.40;;;;;;5070877;28;20104;-73
2022/10/16 06:28:44;;;;;;;;;;;17.40;64.40;;;;;;5072309;28;19924;-73
2022/10/16 06:31:10;;;;;;;;;;;17.40;64.50;;;;;;5071950;28;19924;-74
2022/10/16 06:33:37;;;;;;;;;;;17.40;64.50;;;;;;5070938;28;19920;-73
2022/10/16 06:38:41;;;;;;;;;;;17.40;64.50;;;;;;5122779;27;20356;-74
2022/10/16 06:41:07;;;;;;;;;;;17.40;64.50;;;;;;5088185;28;19930;-74
2022/10/16 06:43:35;;;;;;;;;;;17.40;64.50;;;;;;5088380;28;20433;-73
2022/10/16 06:46:01;;;;;;;;;;;17.30;64.40;;;;;;5088819;28;20376;-74
2022/10/16 06:48:27;;;;;;;;;;;17.40;64.50;;;;;;5071598;28;20011;-73
2022/10/16 06:51:01;;;;;;;;;;;17.30;64.40;;;;;;5088638;28;20011;-74
2022/10/16 06:53:27;;;;;;;;;;;17.30;64.40;;;;;;5088307;28;19928;-74
2022/10/16 06:55:53;;;;;;;;;;;17.40;64.50;;;;;;5088637;28;19990;-73
2022/10/16 06:58:19;;;;;;;;;;;17.30;64.50;;;;;;5088124;28;20372;-74
2022/10/16 07:00:44;;;;;;;;;;;17.30;64.50;;;;;;5089724;28;19943;-74
2022/10/16 07:03:10;;;;;;;;;;;17.30;64.50;;;;;;5089513;28;19920;-74
2022/10/16 07:05:39;;;;;;;;;;;17.40;64.50;;;;;;5088241;28;20440;-72
2022/10/16 07:08:05;;;;;;;;;;;17.30;64.50;;;;;;5088119;28;19927;-74
2022/10/16 07:10:31;;;;;;;;;;;17.30;64.50;;;;;;5088069;28;20622;-73
2022/10/16 07:12:56;;;;;;;;;;;17.30;64.50;;;;;;5071390;28;20358;-74
2022/10/16 07:15:22;;;;;;;;;;;17.30;64.50;;;;;;5087268;28;19920;-74
2022/10/16 07:17:47;;;;;;;;;;;17.30;64.50;;;;;;5087943;28;19931;-73
2022/10/16 07:20:13;;;;;;;;;;;17.30;64.60;;;;;;5087827;28;20439;-74
2022/10/16 07:22:38;;;;;;;;;;;17.30;64.50;;;;;;5089138;28;20019;-74
2022/10/16 07:25:04;;;;;;;;;;;17.30;64.50;;;;;;5087892;28;19930;-73
2022/10/16 07:27:30;;;;;;;;;;;17.30;64.50;;;;;;5087757;28;19921;-73
2022/10/16 07:29:55;;;;;;;;;;;17.30;64.60;;;;;;5087936;28;19929;-74
2022/10/16 07:32:21;;;;;;;;;;;17.30;64.60;;;;;;5087985;28;19920;-73
2022/10/16 07:34:46;;;;;;;;;;;17.30;64.50;;;;;;5086829;28;20372;-74
2022/10/16 07:37:12;;;;;;;;;;;17.30;64.60;;;;;;5088296;28;19951;-74
2022/10/16 07:39:37;;;;;;;;;;;17.30;64.60;;;;;;5087333;28;20010;-74
2022/10/16 07:42:03;;;;;;;;;;;17.30;64.60;;;;;;5087776;28;20079;-74
2022/10/16 07:44:28;;;;;;;;;;;17.30;64.60;;;;;;5087365;28;20470;-73
2022/10/16 07:46:54;;;;;;;;;;;17.30;64.60;;;;;;5088802;28;19925;-74
2022/10/16 07:49:19;;;;;;;;;;;17.30;64.60;;;;;;5078928;28;20342;-72
2022/10/16 07:51:45;;;;;;;;;;;17.30;64.60;;;;;;5073785;28;20022;-74
2022/10/16 07:54:10;;;;;;;;;;;17.40;64.60;;;;;;5073696;28;19924;-74
2022/10/16 07:56:36;;;;;;;;;;;17.30;64.60;;;;;;5074949;28;19971;-74
2022/10/16 07:59:01;;;;;;;;;;;17.30;64.60;;;;;;5074121;28;19920;-74
2022/10/16 08:01:27;;;;;;;;;;;17.30;64.60;;;;;;5073537;28;19985;-74
2022/10/16 08:03:53;;;;;;;;;;;17.30;64.60;;;;;;5073590;28;19927;-71
2022/10/16 08:06:19;;;;;;;;;;;17.30;64.60;;;;;;5073684;28;19920;-72
2022/10/16 08:08:45;;;;;;;;;;;17.30;64.60;;;;;;5073601;28;19920;-73
2022/10/16 08:11:10;;;;;;;;;;;17.30;64.60;;;;;;5073622;28;19920;-74
2022/10/16 08:13:36;;;;;;;;;;;17.30;64.60;;;;;;5074698;28;19989;-74
2022/10/16 08:16:07;;;;;;;;;;;17.30;64.60;;;;;;5074752;28;19931;-73
2022/10/16 08:18:33;;;;;;;;;;;17.30;64.60;;;;;;5073255;28;19947;-73
2022/10/16 08:21:00;;;;;;;;;;;17.30;64.70;;;;;;5073259;28;19921;-74
2022/10/16 08:23:25;;;;;;;;;;;17.30;64.70;;;;;;5073496;28;19921;-73
2022/10/16 08:25:52;;;;;;;;;;;17.30;64.60;;;;;;5073092;28;19927;-72
2022/10/16 08:28:18;;;;;;;;;;;17.30;64.60;;;;;;5073138;28;19924;-74
2022/10/16 08:30:44;;;;;;;;;;;17.30;64.60;;;;;;5073289;28;19924;-74
2022/10/16 08:33:09;;;;;;;;;;;17.30;64.70;;;;;;5073077;28;19925;-74
2022/10/16 08:35:35;;;;;;;;;;;17.30;64.70;;;;;;5072880;28;19927;-74
2022/10/16 08:38:02;;;;;;;;;;;17.30;64.70;;;;;;5072669;28;19970;-71
2022/10/16 08:40:31;;;;;;;;;;;17.30;64.70;;;;;;5073157;28;20342;-73
2022/10/16 08:48:44;;;;;;;;;;;17.30;64.70;;;;;;5122943;27;19912;-74
2022/10/16 08:51:11;;;;;;;;;;;17.30;64.70;;;;;;5088575;28;20628;-73
2022/10/16 08:53:43;;;;;;;;;;;17.20;64.70;;;;;;5122933;28;19920;-74
2022/10/16 08:56:08;;;;;;;;;;;17.30;64.80;;;;;;5088577;28;20412;-71
2022/10/16 08:58:34;;;;;;;;;;;17.30;64.80;;;;;;5088855;28;20077;-74
2022/10/16 09:01:02;;;;;;;;;;;17.30;64.80;;;;;;5122560;28;19920;-74
2022/10/16 09:06:30;;;;;;;;;;;17.30;64.80;;;;;;5164124;27;19912;-74
2022/10/16 09:17:32;;;;;;;;;;;17.20;64.70;;;;;;5122848;27;19912;-73
2022/10/16 09:22:39;;;;;;;;;;;17.30;64.80;;;;;;5123035;27;19912;-74
2022/10/16 09:25:21;;;;;;;;;;;17.10;64.70;;;;;;5088612;28;19943;-74
2022/10/16 09:27:56;;;;;;;;;;;17.30;64.80;;;;;;5123090;28;20003;-74
2022/10/16 09:30:21;;;;;;;;;;;17.30;64.90;;;;;;5088541;28;20384;-73
2022/10/16 09:32:49;;;;;;;;;;;17.20;64.80;;;;;;5088428;28;19924;-74
2022/10/16 09:35:17;;;;;;;;;;;17.30;64.80;;;;;;5088390;28;19920;-74
2022/10/16 09:37:45;;;;;;;;;;;17.20;64.80;;;;;;5088619;28;19920;-74
2022/10/16 09:40:12;;;;;;;;;;;17.20;64.90;;;;;;5088482;28;19931;-74
2022/10/16 09:42:38;;;;;;;;;;;17.20;64.80;;;;;;5122649;28;19921;-71
2022/10/16 09:45:03;;;;;;;;;;;17.20;64.80;;;;;;5089571;28;20427;-75
2022/10/16 09:47:30;;;;;;;;;;;17.20;64.90;;;;;;5088550;28;20029;-75
2022/10/16 09:49:59;;;;;;;;;;;17.30;65.00;;;;;;5088021;28;20007;-74
2022/10/16 09:52:25;;;;;;;;;;;17.20;64.90;;;;;;5088411;28;19920;-71
2022/10/16 09:54:52;;;;;;;;;;;17.30;65.00;;;;;;5089283;28;20386;-74
2022/10/16 09:57:18;;;;;;;;;;;17.30;65.00;;;;;;5088266;28;20292;-74
2022/10/16 09:59:48;;;;;;;;;;;17.20;64.90;;;;;;5087906;28;19920;-73
2022/10/16 10:02:15;;;;;;;;;;;17.20;64.90;;;;;;5087780;28;19924;-74
2022/10/16 10:04:49;;;;;;;;;;;17.20;64.90;;;;;;5089041;28;19930;-74
2022/10/16 10:07:18;;;;;;;;;;;17.30;65.00;;;;;;5089153;28;20265;-75
2022/10/16 10:09:44;;;;;;;;;;;17.20;64.90;;;;;;5087757;28;19951;-72
2022/10/16 10:12:25;;;;;;;;;;;17.20;64.90;;;;;;5089007;28;19931;-74
2022/10/16 10:14:52;;;;;;;;;;;17.30;65.00;;;;;;5121787;28;19966;-74
2022/10/16 10:17:18;;;;;;;;;;;17.20;64.90;;;;;;5087560;28;19920;-74
2022/10/16 10:19:49;;;;;;;;;;;17.20;65.00;;;;;;5088966;28;19994;-74
2022/10/16 10:33:25;;;;;;;;;;;17.20;65.00;;;;;;5166349;27;798403;-71
2022/10/16 10:52:41;;;;;;;;;;;17.20;64.80;;;;;;5122627;27;20367;-74
2022/10/16 10:55:20;;;;;;;;;;;17.20;64.70;;;;;;5088674;28;20295;-73
2022/10/16 10:57:56;;;;;;;;;;;17.20;64.80;;;;;;5088593;28;19920;-74
2022/10/16 11:00:27;;;;;;;;;;;17.30;64.80;;;;;;5088511;28;19927;-74
2022/10/16 11:03:00;;;;;;;;;;;17.20;64.80;;;;;;5088822;28;20162;-73
2022/10/16 11:05:28;;;;;;;;;;;17.20;64.80;;;;;;5088329;28;19924;-73
2022/10/16 11:07:58;;;;;;;;;;;17.20;64.80;;;;;;5088773;28;19953;-73
2022/10/16 11:10:27;;;;;;;;;;;17.30;64.90;;;;;;5122549;28;19924;-73
2022/10/16 11:12:55;;;;;;;;;;;17.30;64.80;;;;;;5088320;28;19961;-74
2022/10/16 11:15:23;;;;;;;;;;;17.20;64.80;;;;;;5088595;28;19927;-74
2022/10/16 11:17:53;;;;;;;;;;;17.20;64.90;;;;;;5089412;28;20419;-75
2022/10/16 11:20:27;;;;;;;;;;;17.30;64.80;;;;;;5088017;28;20019;-74
2022/10/16 11:22:56;;;;;;;;;;;17.20;65.60;;;;;;5122173;28;19962;-73
2022/10/16 11:25:39;;;;;;;;;;;17.20;64.80;;;;;;5087718;28;20015;-72
2022/10/16 11:28:23;;;;;;;;;;;17.20;64.80;;;;;;5089265;28;20007;-73
2022/10/16 11:30:52;;;;;;;;;;;17.30;64.80;;;;;;5087313;28;19928;-74
2022/10/16 11:36:01;;;;;;;;;;;17.20;64.70;;;;;;5122752;27;19913;-74
2022/10/16 11:38:31;;;;;;;;;;;17.30;64.80;;;;;;5088849;28;19942;-74
2022/10/16 11:41:00;;;;;;;;;;;17.20;64.70;;;;;;5088592;28;19928;-74
2022/10/16 11:43:31;;;;;;;;;;;17.20;64.70;;;;;;5088748;28;19920;-74
2022/10/16 11:45:58;;;;;;;;;;;17.20;64.70;;;;;;5072031;28;19920;-71
2022/10/16 11:48:44;;;;;;;;;;;17.30;64.80;;;;;;5088000;28;19927;-73
2022/10/16 11:51:30;;;;;;;;;;;16.50;64.50;;;;;;5087931;28;19931;-73
2022/10/16 11:54:00;;;;;;;;;;;17.20;64.80;;;;;;5088128;28;19974;-73
2022/10/16 11:56:26;;;;;;;;;;;17.30;64.90;;;;;;5088306;28;19927;-73
2022/10/16 11:59:11;;;;;;;;;;;17.30;64.90;;;;;;5088488;28;19920;-73
2022/10/16 12:01:41;;;;;;;;;;;17.20;64.80;;;;;;5088023;28;19974;-73
2022/10/16 12:07:06;;;;;;;;;;;17.30;64.90;;;;;;5126409;27;19912;-74
2022/10/16 12:09:32;;;;;;;;;;;17.30;64.80;;;;;;5109038;28;19927;-72
2022/10/16 12:11:58;;;;;;;;;;;17.30;64.90;;;;;;5108938;28;19919;-73
2022/10/16 12:17:24;;;;;;;;;;;17.30;64.90;;;;;;5122903;27;20292;-71
2022/10/16 12:19:57;;;;;;;;;;;17.20;64.80;;;;;;5088838;28;19931;-73
2022/10/16 12:22:25;;;;;;;;;;;17.20;64.70;;;;;;5122931;28;19927;-73
2022/10/16 12:24:51;;;;;;;;;;;17.20;64.80;;;;;;5088432;28;19966;-73
2022/10/16 12:27:32;;;;;;;;;;;17.30;64.80;;;;;;5089775;28;19924;-73
2022/10/16 12:29:59;;;;;;;;;;;17.20;64.80;;;;;;5088382;28;20147;-74
2022/10/16 12:32:34;;;;;;;;;;;17.30;64.80;;;;;;5088390;28;19926;-74
2022/10/16 12:35:00;;;;;;;;;;;17.20;64.80;;;;;;5088329;28;19929;-73
2022/10/16 12:37:28;;;;;;;;;;;17.30;64.80;;;;;;5088598;28;19943;-71
2022/10/16 12:39:54;;;;;;;;;;;17.20;64.70;;;;;;5089467;28;20015;-73
2022/10/16 12:44:58;;;;;;;;;;;17.30;64.80;;;;;;5122581;27;19919;-73
2022/10/16 12:50:27;;;;;;;;;;;17.20;64.70;;;;;;5122491;27;19919;-74
2022/10/16 12:52:53;;;;;;;;;;;17.20;64.60;;;;;;5088932;28;20129;-73
2022/10/16 12:55:20;;;;;;;;;;;17.20;64.70;;;;;;5089981;28;20052;-73
2022/10/16 12:58:05;;;;;;;;;;;17.30;64.80;;;;;;5088568;28;20379;-73
2022/10/16 13:06:11;;;;;;;;;;;17.20;64.70;;;;;;5123080;27;19912;-73
2022/10/16 13:11:35;;;;;;;;;;;17.20;64.80;;;;;;5122876;27;19912;-73
2022/10/16 13:14:20;;;;;;;;;;;17.30;64.80;;;;;;5089837;28;19948;-73
2022/10/16 13:19:44;;;;;;;;;;;17.30;64.80;;;;;;5165845;27;803750;-73
2022/10/16 13:22:29;;;;;;;;;;;17.30;64.80;;;;;;5195496;27;19918;-71
2022/10/16 13:25:14;;;;;;;;;;;17.30;64.80;;;;;;5195747;27;19970;-71
2022/10/16 13:27:45;;;;;;;;;;;17.30;64.80;;;;;;5195111;27;20392;-73
2022/10/16 13:30:13;;;;;;;;;;;17.30;64.80;;;;;;5195174;27;19918;-73
2022/10/16 13:32:39;;;;;;;;;;;17.30;64.80;;;;;;5195195;27;19961;-70
2022/10/16 13:35:17;;;;;;;;;;;17.20;64.70;;;;;;5195294;27;19977;-73
2022/10/16 13:37:43;;;;;;;;;;;17.30;64.80;;;;;;5195539;27;20056;-71
2022/10/16 13:40:18;;;;;;;;;;;17.30;64.80;;;;;;5195462;27;19980;-72
2022/10/16 13:42:46;;;;;;;;;;;17.30;64.70;;;;;;5195659;27;19918;-71
2022/10/16 13:45:20;;;;;;;;;;;17.30;64.70;;;;;;5195310;27;19918;-72
2022/10/16 13:47:45;;;;;;;;;;;17.30;64.70;;;;;;5195222;27;20005;-73
2022/10/16 13:50:13;;;;;;;;;;;17.30;64.70;;;;;;5195211;27;19918;-71
2022/10/16 13:52:38;;;;;;;;;;;17.30;64.70;;;;;;5194826;27;20047;-72
2022/10/16 13:55:12;;;;;;;;;;;17.30;64.70;;;;;;5213832;27;20021;-70
2022/10/16 13:57:38;;;;;;;;;;;17.30;64.60;;;;;;5194806;27;19945;-72
2022/10/16 14:00:16;;;;;;;;;;;17.20;64.60;;;;;;5194832;27;19918;-71
2022/10/16 14:02:42;;;;;;;;;;;17.30;64.60;;;;;;5213562;27;19925;-71
2022/10/16 14:05:09;;;;;;;;;;;17.30;64.60;;;;;;5213608;27;19919;-70
2022/10/16 14:07:35;;;;;;;;;;;17.30;64.60;;;;;;5194884;27;20118;-72
2022/10/16 14:10:03;;;;;;;;;;;17.30;64.60;;;;;;5194644;27;19919;-71
2022/10/16 14:12:29;;;;;;;;;;;17.30;64.60;;;;;;5194674;27;20009;-73
2022/10/16 14:14:56;;;;;;;;;;;17.30;64.60;;;;;;5194490;27;19957;-73
2022/10/16 14:17:24;;;;;;;;;;;17.30;64.60;;;;;;5194403;27;19919;-72
2022/10/16 14:19:50;;;;;;;;;;;17.30;64.60;;;;;;5194628;27;20282;-72
2022/10/16 14:22:36;;;;;;;;;;;17.30;64.60;;;;;;5194200;27;19918;-71
2022/10/16 14:25:13;;;;;;;;;;;17.40;64.60;;;;;;5194332;27;19918;-72
2022/10/16 14:27:39;;;;;;;;;;;17.40;64.60;;;;;;5194133;27;19925;-72
2022/10/16 14:32:55;;;;;;;;;;;17.30;64.60;;;;;;5122846;27;19912;-72
2022/10/16 14:35:23;;;;;;;;;;;17.30;64.50;;;;;;5089966;28;19920;-72
2022/10/16 14:37:51;;;;;;;;;;;17.30;64.60;;;;;;5088792;28;19947;-72
2022/10/16 14:40:17;;;;;;;;;;;17.40;64.60;;;;;;5088896;28;20324;-72
2022/10/16 14:42:43;;;;;;;;;;;17.40;64.60;;;;;;5088471;28;19920;-72
2022/10/16 14:45:10;;;;;;;;;;;17.30;64.50;;;;;;5088770;28;20371;-72
2022/10/16 14:47:36;;;;;;;;;;;17.30;64.50;;;;;;5088381;28;20408;-71
2022/10/16 14:50:02;;;;;;;;;;;17.30;64.60;;;;;;5088601;28;19921;-71
2022/10/16 14:52:28;;;;;;;;;;;17.30;64.60;;;;;;5088289;28;20407;-70
2022/10/16 14:54:54;;;;;;;;;;;17.40;64.60;;;;;;5088486;28;20348;-72
2022/10/16 14:57:22;;;;;;;;;;;17.40;64.60;;;;;;5088679;28;19920;-71
2022/10/16 14:59:50;;;;;;;;;;;17.40;64.70;;;;;;5122169;28;19952;-72
2022/10/16 15:02:32;;;;;;;;;;;17.40;64.60;;;;;;5088429;28;19921;-72
2022/10/16 15:05:02;;;;;;;;;;;17.40;65.40;;;;;;5088325;28;19921;-72
2022/10/16 15:07:27;;;;;;;;;;;17.40;64.70;;;;;;5088383;28;20288;-73
2022/10/16 15:09:53;;;;;;;;;;;17.40;64.60;;;;;;5088017;28;19928;-72
2022/10/16 15:12:19;;;;;;;;;;;17.40;64.60;;;;;;5089138;28;19929;-72
2022/10/16 15:14:44;;;;;;;;;;;17.40;64.60;;;;;;5122146;28;20359;-72
2022/10/16 15:17:10;;;;;;;;;;;17.40;64.60;;;;;;5089141;28;20005;-71
2022/10/16 15:19:36;;;;;;;;;;;17.30;64.60;;;;;;5087999;28;19928;-71
2022/10/16 15:22:01;;;;;;;;;;;17.40;64.60;;;;;;5087756;28;19924;-71
2022/10/16 15:24:27;;;;;;;;;;;17.40;64.60;;;;;;5087328;28;19920;-71
2022/10/16 15:26:52;;;;;;;;;;;17.40;64.60;;;;;;5088791;28;19920;-72
2022/10/16 15:29:18;;;;;;;;;;;17.40;64.60;;;;;;5086877;28;19920;-72
2022/10/16 15:31:43;;;;;;;;;;;17.40;64.60;;;;;;5087043;28;19948;-71
2022/10/16 15:34:09;;;;;;;;;;;17.40;64.60;;;;;;5088742;28;20023;-72
2022/10/16 15:36:36;;;;;;;;;;;17.40;64.60;;;;;;5087795;28;19924;-72
2022/10/16 15:39:02;;;;;;;;;;;17.40;64.60;;;;;;5087446;28;19995;-72
2022/10/16 15:41:28;;;;;;;;;;;17.40;64.70;;;;;;5087283;28;20364;-72
2022/10/16 15:43:53;;;;;;;;;;;17.30;64.60;;;;;;5075041;28;19921;-71
2022/10/16 15:46:20;;;;;;;;;;;17.40;64.70;;;;;;5073775;28;19934;-72
2022/10/16 15:48:46;;;;;;;;;;;17.40;64.60;;;;;;5073447;28;19921;-72
2022/10/16 15:51:12;;;;;;;;;;;17.30;64.60;;;;;;5074590;28;20367;-72
2022/10/16 15:53:37;;;;;;;;;;;17.40;64.70;;;;;;5074912;28;19920;-72
2022/10/16 15:56:07;;;;;;;;;;;17.40;64.70;;;;;;5073619;28;19920;-72